createdAt,value
2022-12-31T00:00:40.681Z,5.03
2022-12-31T00:03:09.727Z,8.70
2022-12-31T00:05:38.043Z,5.93
2022-12-31T00:08:06.410Z,6.13
2022-12-31T00:10:41.406Z,5.25
2022-12-31T00:13:09.925Z,9.68
2022-12-31T00:15:40.479Z,6.47
2022-12-31T00:18:09.202Z,6.05
2022-12-31T00:20:40.997Z,7.03
2022-12-31T00:23:10.078Z,7.10
2022-12-31T00:25:38.176Z,8.02
2022-12-31T00:28:06.452Z,7.03
2022-12-31T00:30:35.575Z,8.90
2022-12-31T00:33:05.046Z,10.43
2022-12-31T00:35:34.720Z,4.88
2022-12-31T00:38:02.801Z,6.03
2022-12-31T00:40:30.789Z,9.73
2022-12-31T00:42:58.825Z,6.18
2022-12-31T00:45:26.929Z,4.15
2022-12-31T00:47:54.909Z,7.68
2022-12-31T00:50:24.299Z,7.28
2022-12-31T00:52:53.244Z,7.05
2022-12-31T00:55:21.432Z,5.50
2022-12-31T00:57:49.554Z,3.70
2022-12-31T01:00:18.042Z,7.47
2022-12-31T01:02:46.223Z,11.13
2022-12-31T01:05:14.280Z,7.53
2022-12-31T01:07:43.678Z,14.80
2022-12-31T01:10:11.937Z,5.93
2022-12-31T01:12:39.985Z,7.93
2022-12-31T01:15:08.792Z,9.63
2022-12-31T01:17:36.811Z,10.68
2022-12-31T01:20:07.436Z,10.17
2022-12-31T01:22:35.444Z,11.60
2022-12-31T01:25:05.306Z,9.23
2022-12-31T01:27:33.360Z,5.60
2022-12-31T01:30:01.471Z,11.63
2022-12-31T01:32:29.460Z,8.85
2022-12-31T01:34:57.633Z,9.00
2022-12-31T01:37:25.596Z,10.03
2022-12-31T01:39:53.557Z,4.18
2022-12-31T01:42:22.942Z,9.13
2022-12-31T01:44:54.469Z,8.27
2022-12-31T01:47:33.722Z,6.55
2022-12-31T01:50:08.008Z,7.43
2022-12-31T01:52:39.499Z,6.93
2022-12-31T01:55:15.989Z,9.43
2022-12-31T01:57:48.254Z,2.83
2022-12-31T02:00:17.589Z,10.97
2022-12-31T02:02:45.765Z,8.27
2022-12-31T02:05:19.129Z,5.57
2022-12-31T02:07:49.243Z,10.53
2022-12-31T02:10:17.744Z,12.80
2022-12-31T02:12:47.683Z,10.65
2022-12-31T02:15:16.186Z,11.33
2022-12-31T02:17:52.874Z,9.77
2022-12-31T02:20:55.159Z,6.90
2022-12-31T02:24:01.368Z,7.37
2022-12-31T02:26:50.791Z,8.40
2022-12-31T02:29:47.987Z,6.67
2022-12-31T02:32:21.047Z,7.50
2022-12-31T02:34:54.236Z,9.77
2022-12-31T02:37:27.997Z,11.10
2022-12-31T02:39:56.547Z,7.55
2022-12-31T02:42:24.594Z,6.60
2022-12-31T02:44:52.580Z,9.70
2022-12-31T02:47:31.931Z,6.97
2022-12-31T02:50:09.697Z,8.13
2022-12-31T02:52:50.173Z,6.17
2022-12-31T02:55:25.575Z,8.85
2022-12-31T02:58:00.122Z,6.20
2022-12-31T03:00:48.791Z,5.87
2022-12-31T03:03:20.305Z,3.40
2022-12-31T03:05:51.041Z,6.80
2022-12-31T03:08:23.174Z,7.50
2022-12-31T03:10:51.300Z,6.57
2022-12-31T03:13:18.589Z,3.97
2022-12-31T03:15:49.651Z,3.80
2022-12-31T03:18:40.946Z,5.60
2022-12-31T03:21:28.091Z,3.20
2022-12-31T03:24:13.733Z,2.63
2022-12-31T03:26:41.797Z,3.23
2022-12-31T03:29:09.793Z,4.83
2022-12-31T03:31:37.777Z,4.88
2022-12-31T03:34:07.100Z,6.50
2022-12-31T03:36:35.130Z,2.20
2022-12-31T03:39:04.829Z,6.78
2022-12-31T03:41:32.809Z,5.55
2022-12-31T03:44:00.866Z,5.37
2022-12-31T03:46:28.844Z,2.00
2022-12-31T03:48:56.837Z,2.58
2022-12-31T03:51:26.183Z,3.00
2022-12-31T03:53:54.383Z,1.20
2022-12-31T03:56:22.365Z,2.03
2022-12-31T03:58:50.467Z,4.93
2022-12-31T04:01:19.242Z,1.30
2022-12-31T04:03:47.487Z,1.33
2022-12-31T04:06:15.466Z,1.48
2022-12-31T04:08:44.896Z,0.70
2022-12-31T04:13:49.909Z,0.30
2022-12-31T04:16:17.954Z,0.30
2022-12-31T04:18:46.050Z,0.30
2022-12-31T04:21:14.043Z,0.95
2022-12-31T04:23:42.043Z,0.63
2022-12-31T04:26:11.455Z,0.43
2022-12-31T04:28:39.431Z,0.30
2022-12-31T04:31:07.480Z,0.30
2022-12-31T04:33:35.463Z,0.30
2022-12-31T04:36:03.868Z,0.30
2022-12-31T04:38:32.004Z,1.70
2022-12-31T04:41:17.373Z,0.40
2022-12-31T04:43:49.167Z,1.08
2022-12-31T04:46:19.299Z,0.30
2022-12-31T04:48:47.532Z,0.90
2022-12-31T04:51:16.253Z,0.38
2022-12-31T04:53:44.293Z,0.28
2022-12-31T04:56:12.886Z,1.77
2022-12-31T04:58:41.460Z,3.25
2022-12-31T05:01:11.966Z,4.05
2022-12-31T05:03:40.557Z,3.40
2022-12-31T05:06:13.460Z,6.25
2022-12-31T05:08:41.556Z,5.68
2022-12-31T05:11:09.700Z,3.40
2022-12-31T05:13:38.099Z,5.47
2022-12-31T05:16:06.921Z,4.53
2022-12-31T05:18:36.327Z,9.07
2022-12-31T05:21:05.000Z,5.20
2022-12-31T05:23:33.318Z,9.65
2022-12-31T05:26:01.963Z,6.22
2022-12-31T05:28:29.921Z,7.72
2022-12-31T05:30:57.991Z,7.35
2022-12-31T05:33:26.130Z,10.85
2022-12-31T05:35:57.914Z,11.20
2022-12-31T05:38:26.268Z,6.03
2022-12-31T05:41:00.702Z,8.40
2022-12-31T05:43:28.876Z,5.47
2022-12-31T05:45:56.924Z,8.63
2022-12-31T05:48:25.191Z,11.10
2022-12-31T05:50:53.151Z,13.30
2022-12-31T05:53:22.586Z,13.93
2022-12-31T05:55:51.693Z,9.90
2022-12-31T05:58:20.027Z,5.22
2022-12-31T06:00:48.015Z,14.32
2022-12-31T06:03:16.477Z,9.05
2022-12-31T06:05:44.633Z,12.30
2022-12-31T06:08:13.369Z,10.65
2022-12-31T06:10:42.754Z,12.20
2022-12-31T06:13:10.771Z,10.80
2022-12-31T06:15:40.505Z,5.53
2022-12-31T06:18:08.893Z,7.82
2022-12-31T06:20:38.126Z,7.40
2022-12-31T06:23:06.804Z,13.77
2022-12-31T06:25:37.372Z,12.17
2022-12-31T06:28:07.185Z,10.40
2022-12-31T06:30:35.161Z,11.10
2022-12-31T06:33:03.229Z,12.40
2022-12-31T06:35:32.323Z,19.25
2022-12-31T06:38:00.663Z,12.23
2022-12-31T06:40:28.679Z,15.63
2022-12-31T06:43:00.095Z,15.50
2022-12-31T06:45:29.918Z,20.13
2022-12-31T06:47:57.910Z,14.13
2022-12-31T06:50:25.926Z,15.15
2022-12-31T06:52:54.955Z,16.75
2022-12-31T06:55:23.645Z,12.63
2022-12-31T06:57:52.254Z,13.23
2022-12-31T07:00:21.750Z,8.30
2022-12-31T07:03:05.650Z,11.90
2022-12-31T07:05:43.165Z,12.55
2022-12-31T07:08:22.845Z,9.75
2022-12-31T07:10:57.408Z,11.25
2022-12-31T07:13:39.641Z,13.88
2022-12-31T07:16:21.153Z,8.15
2022-12-31T07:18:57.594Z,7.22
2022-12-31T07:21:34.579Z,5.00
2022-12-31T07:24:03.205Z,4.88
2022-12-31T07:26:51.127Z,8.23
2022-12-31T07:32:06.867Z,9.60
2022-12-31T07:34:45.907Z,7.10
2022-12-31T07:37:21.937Z,8.45
2022-12-31T07:40:04.399Z,8.55
2022-12-31T07:42:40.031Z,5.05
2022-12-31T07:45:17.617Z,9.60
2022-12-31T07:47:47.544Z,4.88
2022-12-31T07:50:19.839Z,7.15
2022-12-31T07:52:48.489Z,6.78
2022-12-31T07:55:16.734Z,6.15
2022-12-31T07:57:58.583Z,11.43
2022-12-31T08:00:27.918Z,9.57
2022-12-31T08:03:25.491Z,8.75
2022-12-31T08:06:09.446Z,6.18
2022-12-31T08:08:45.420Z,9.32
2022-12-31T08:11:20.235Z,9.30
2022-12-31T08:13:48.841Z,10.38
2022-12-31T08:16:17.483Z,10.10
2022-12-31T08:18:46.048Z,14.25
2022-12-31T08:21:32.708Z,14.18
2022-12-31T08:24:11.770Z,14.07
2022-12-31T08:26:54.140Z,13.35
2022-12-31T08:29:35.028Z,13.98
2022-12-31T08:32:12.150Z,11.35
2022-12-31T08:34:49.610Z,8.25
2022-12-31T08:37:27.529Z,13.23
2022-12-31T08:40:08.987Z,16.38
2022-12-31T08:42:45.918Z,13.20
2022-12-31T08:45:21.721Z,16.58
2022-12-31T08:48:00.299Z,14.85
2022-12-31T08:50:29.462Z,12.75
2022-12-31T08:52:59.762Z,13.95
2022-12-31T08:55:28.706Z,13.15
2022-12-31T08:58:09.833Z,12.80
2022-12-31T09:00:40.012Z,11.02
2022-12-31T09:03:25.472Z,15.82
2022-12-31T09:06:03.721Z,9.23
2022-12-31T09:08:42.801Z,16.85
2022-12-31T09:11:22.601Z,15.98
2022-12-31T09:14:10.949Z,11.98
2022-12-31T09:16:49.712Z,17.95
2022-12-31T09:19:17.867Z,15.77
2022-12-31T09:21:46.223Z,15.98
2022-12-31T09:24:17.045Z,10.95
2022-12-31T09:26:57.552Z,13.93
2022-12-31T09:29:44.356Z,18.02
2022-12-31T09:32:22.212Z,14.90
2022-12-31T09:34:57.704Z,12.63
2022-12-31T09:37:39.723Z,16.50
2022-12-31T09:40:31.054Z,15.13
2022-12-31T09:43:23.264Z,9.10
2022-12-31T09:46:16.339Z,14.55
2022-12-31T09:49:37.822Z,13.85
2022-12-31T09:54:54.430Z,10.00
2022-12-31T09:57:35.184Z,8.88
2022-12-31T10:00:11.078Z,15.23
2022-12-31T10:03:00.590Z,10.15
2022-12-31T10:05:51.532Z,15.02
2022-12-31T10:08:34.836Z,17.05
2022-12-31T10:11:07.612Z,17.05
2022-12-31T10:13:47.535Z,13.98
2022-12-31T10:16:55.090Z,14.80
2022-12-31T10:20:07.179Z,11.63
2022-12-31T10:22:55.856Z,9.27
2022-12-31T10:25:39.386Z,13.05
2022-12-31T10:28:22.742Z,10.00
2022-12-31T10:31:01.317Z,8.82
2022-12-31T10:33:42.615Z,9.65
2022-12-31T10:36:20.064Z,7.65
2022-12-31T10:38:58.480Z,9.52
2022-12-31T10:42:03.258Z,6.82
2022-12-31T10:44:59.501Z,7.82
2022-12-31T10:47:49.173Z,4.55
2022-12-31T10:50:55.786Z,10.52
2022-12-31T10:53:56.570Z,10.10
2022-12-31T10:57:15.168Z,6.57
2022-12-31T11:00:08.689Z,3.70
2022-12-31T11:03:29.688Z,9.02
2022-12-31T11:06:36.424Z,4.03
2022-12-31T11:09:41.148Z,1.83
2022-12-31T11:12:25.681Z,1.40
2022-12-31T11:15:19.250Z,4.32
2022-12-31T11:17:59.416Z,3.78
2022-12-31T11:20:56.964Z,4.30
2022-12-31T11:23:37.081Z,3.70
2022-12-31T11:26:18.746Z,3.63
2022-12-31T11:29:04.523Z,2.47
2022-12-31T11:31:45.425Z,1.92
2022-12-31T11:34:24.951Z,2.05
2022-12-31T11:37:11.720Z,2.83
2022-12-31T11:39:48.286Z,3.13
2022-12-31T11:42:22.254Z,1.40
2022-12-31T11:44:58.619Z,1.45
2022-12-31T11:48:04.295Z,2.28
2022-12-31T11:50:43.816Z,4.25
2022-12-31T11:53:30.975Z,1.73
2022-12-31T11:56:11.365Z,2.45
2022-12-31T11:58:42.073Z,1.38
2022-12-31T12:01:17.482Z,3.70
2022-12-31T12:03:46.428Z,2.60
2022-12-31T12:06:16.607Z,2.20
2022-12-31T12:08:45.972Z,3.35
2022-12-31T12:11:21.854Z,0.60
2022-12-31T12:13:49.988Z,0.70
2022-12-31T12:16:22.412Z,0.60
2022-12-31T12:18:52.954Z,1.27
2022-12-31T12:21:23.838Z,2.22
2022-12-31T12:23:57.269Z,5.93
2022-12-31T12:26:31.389Z,3.22
2022-12-31T12:29:01.340Z,4.22
2022-12-31T12:31:34.190Z,6.13
2022-12-31T12:34:02.275Z,5.10
2022-12-31T12:36:30.332Z,12.68
2022-12-31T12:39:03.427Z,5.90
2022-12-31T12:41:31.411Z,10.00
2022-12-31T12:44:07.829Z,12.05
2022-12-31T12:46:47.960Z,10.18
2022-12-31T12:49:23.148Z,8.60
2022-12-31T12:52:36.782Z,13.18
2022-12-31T12:55:16.685Z,7.50
2022-12-31T12:57:49.688Z,5.13
2022-12-31T13:00:20.380Z,6.53
2022-12-31T13:03:21.233Z,5.07
2022-12-31T13:06:16.559Z,7.28
2022-12-31T13:09:00.693Z,8.50
2022-12-31T13:11:38.707Z,9.52
2022-12-31T13:14:18.613Z,11.35
2022-12-31T13:16:54.416Z,8.77
2022-12-31T13:19:32.051Z,7.55
2022-12-31T13:22:06.378Z,10.02
2022-12-31T13:24:54.279Z,8.93
2022-12-31T13:27:29.715Z,9.60
2022-12-31T13:30:01.978Z,7.28
2022-12-31T13:32:39.922Z,10.20
2022-12-31T13:35:24.455Z,11.48
2022-12-31T13:38:05.174Z,8.13
2022-12-31T13:40:42.173Z,10.90
2022-12-31T13:43:17.801Z,9.02
2022-12-31T13:45:59.393Z,6.88
2022-12-31T13:48:35.811Z,16.38
2022-12-31T13:51:09.250Z,10.38
2022-12-31T13:53:46.624Z,11.32
2022-12-31T13:56:19.124Z,16.65
2022-12-31T13:58:53.178Z,11.68
2022-12-31T14:01:29.406Z,11.50
2022-12-31T14:04:07.284Z,12.43
2022-12-31T14:06:42.277Z,8.48
2022-12-31T14:09:18.787Z,8.38
2022-12-31T14:12:10.327Z,8.10
2022-12-31T14:14:47.152Z,30.52
2022-12-31T14:17:23.701Z,11.43
2022-12-31T14:20:07.211Z,10.85
2022-12-31T14:22:42.901Z,13.93
2022-12-31T14:25:22.450Z,8.85
2022-12-31T14:27:54.490Z,13.70
2022-12-31T14:30:24.516Z,11.93
2022-12-31T14:33:21.945Z,11.10
2022-12-31T14:36:02.849Z,8.90
2022-12-31T14:38:48.614Z,18.65
2022-12-31T14:41:35.735Z,6.72
2022-12-31T14:44:18.736Z,14.98
2022-12-31T14:47:02.100Z,9.23
2022-12-31T14:49:40.294Z,13.00
2022-12-31T14:52:22.915Z,21.13
2022-12-31T14:55:02.784Z,15.35
2022-12-31T14:58:16.807Z,17.42
2022-12-31T15:00:34.315Z,15.45
2022-12-31T15:03:04.667Z,17.85
2022-12-31T15:05:35.577Z,23.52
2022-12-31T15:08:18.992Z,24.95
2022-12-31T15:10:59.673Z,25.67
2022-12-31T15:13:45.112Z,22.73
2022-12-31T15:16:35.869Z,20.08
2022-12-31T15:19:43.600Z,20.50
2022-12-31T15:22:25.828Z,25.65
2022-12-31T15:24:54.104Z,25.10
2022-12-31T15:27:34.116Z,24.83
2022-12-31T15:30:06.002Z,24.63
2022-12-31T15:32:38.057Z,29.58
2022-12-31T15:35:27.025Z,17.63
2022-12-31T15:38:03.196Z,24.58
2022-12-31T15:40:32.054Z,29.40
2022-12-31T15:43:05.625Z,33.42
2022-12-31T15:45:39.931Z,23.13
2022-12-31T15:48:14.725Z,27.35
2022-12-31T15:50:44.246Z,24.13
2022-12-31T15:53:25.926Z,27.75
2022-12-31T15:55:55.752Z,24.83
2022-12-31T15:58:26.889Z,26.08
2022-12-31T16:01:04.605Z,27.17
2022-12-31T16:03:33.180Z,16.75
2022-12-31T16:06:03.524Z,31.10
2022-12-31T16:08:34.738Z,32.42
2022-12-31T16:11:05.062Z,30.75
2022-12-31T16:13:36.229Z,18.83
2022-12-31T16:18:40.079Z,33.38
2022-12-31T16:21:23.673Z,20.50
2022-12-31T16:23:52.161Z,36.80
2022-12-31T16:26:20.526Z,22.92
2022-12-31T16:28:50.245Z,37.40
2022-12-31T16:31:20.906Z,35.60
2022-12-31T16:33:49.150Z,34.15
2022-12-31T16:36:24.080Z,27.15
2022-12-31T16:38:53.196Z,26.27
2022-12-31T16:41:22.139Z,29.92
2022-12-31T16:43:51.487Z,36.38
2022-12-31T16:46:26.815Z,36.88
2022-12-31T16:48:58.494Z,29.63
2022-12-31T16:51:30.071Z,31.60
2022-12-31T16:53:59.622Z,32.03
2022-12-31T16:56:32.880Z,33.47
2022-12-31T16:59:03.320Z,35.65
2022-12-31T17:01:35.992Z,30.05
2022-12-31T17:04:09.190Z,25.65
2022-12-31T17:06:39.209Z,22.27
2022-12-31T17:09:14.497Z,27.60
2022-12-31T17:11:50.455Z,33.55
2022-12-31T17:14:20.613Z,23.95
2022-12-31T17:17:02.566Z,24.02
2022-12-31T17:19:41.576Z,23.60
2022-12-31T17:22:16.710Z,20.33
2022-12-31T17:24:45.076Z,23.05
2022-12-31T17:27:13.240Z,28.27
2022-12-31T17:29:42.356Z,23.40
2022-12-31T17:35:29.212Z,36.83
2022-12-31T17:38:28.651Z,30.48
2022-12-31T17:41:05.439Z,75.05
2022-12-31T17:43:35.536Z,21.10
2022-12-31T17:46:10.073Z,21.45
2022-12-31T17:48:38.457Z,24.85
2022-12-31T17:51:08.034Z,27.13
2022-12-31T17:53:36.176Z,21.30
2022-12-31T17:56:06.248Z,23.65
2022-12-31T17:58:37.512Z,23.95
2022-12-31T18:01:07.705Z,26.90
2022-12-31T18:03:36.697Z,25.05
2022-12-31T18:06:05.465Z,16.40
2022-12-31T18:08:34.845Z,10.95
2022-12-31T18:11:02.929Z,23.63
2022-12-31T18:13:31.404Z,25.77
2022-12-31T18:15:59.791Z,25.63
2022-12-31T18:18:29.392Z,19.50
2022-12-31T18:20:59.839Z,26.92
2022-12-31T18:23:30.136Z,21.42
2022-12-31T18:25:59.456Z,23.05
2022-12-31T18:28:27.552Z,18.77
2022-12-31T18:30:56.847Z,44.03
2022-12-31T18:33:26.844Z,22.98
2022-12-31T18:36:10.706Z,26.92
2022-12-31T18:38:39.330Z,20.30
2022-12-31T18:41:16.526Z,25.80
2022-12-31T18:43:44.708Z,23.27
2022-12-31T18:46:14.963Z,20.00
2022-12-31T18:48:44.264Z,20.45
2022-12-31T18:51:15.196Z,22.08
2022-12-31T18:53:43.449Z,22.60
2022-12-31T18:56:15.055Z,20.58
2022-12-31T18:58:43.782Z,24.17
2022-12-31T19:01:25.982Z,16.67
2022-12-31T19:03:54.798Z,13.15
2022-12-31T19:06:23.376Z,22.23
2022-12-31T19:08:51.603Z,19.23
2022-12-31T19:11:22.113Z,20.88
2022-12-31T19:13:50.990Z,17.00
2022-12-31T19:16:19.254Z,20.52
2022-12-31T19:18:47.506Z,28.67
2022-12-31T19:21:17.959Z,28.73
2022-12-31T19:23:46.741Z,27.75
2022-12-31T19:26:19.783Z,24.63
2022-12-31T19:28:50.874Z,15.40
2022-12-31T19:31:19.497Z,34.63
2022-12-31T19:33:47.567Z,32.33
2022-12-31T19:36:17.541Z,31.15
2022-12-31T19:38:46.220Z,28.85
2022-12-31T19:41:17.180Z,31.88
2022-12-31T19:46:16.740Z,15.60
2022-12-31T19:48:47.872Z,25.95
2022-12-31T19:53:46.145Z,21.15
2022-12-31T19:56:16.462Z,18.85
2022-12-31T19:58:45.429Z,19.42
2022-12-31T20:01:19.480Z,22.80
2022-12-31T20:03:47.880Z,23.38
2022-12-31T20:06:17.345Z,25.45
2022-12-31T20:08:46.636Z,32.15
2022-12-31T20:11:17.424Z,29.88
2022-12-31T20:13:46.971Z,27.67
2022-12-31T20:16:18.092Z,23.50
2022-12-31T20:18:48.356Z,20.77
2022-12-31T20:21:19.030Z,25.92
2022-12-31T20:23:47.165Z,19.05
2022-12-31T20:26:15.302Z,24.02
2022-12-31T20:28:43.512Z,24.48
2022-12-31T20:31:13.614Z,21.35
2022-12-31T20:33:43.522Z,21.90
2022-12-31T20:36:14.025Z,18.92
2022-12-31T20:38:42.458Z,15.50
2022-12-31T20:41:13.025Z,16.92
2022-12-31T20:43:41.359Z,15.40
2022-12-31T20:46:15.248Z,13.45
2022-12-31T20:48:46.225Z,18.15
2022-12-31T20:51:16.518Z,13.25
2022-12-31T20:53:48.758Z,16.23
2022-12-31T20:56:17.567Z,11.57
2022-12-31T20:58:46.111Z,14.02
2022-12-31T21:01:15.827Z,34.30
2022-12-31T21:04:04.824Z,13.35
2022-12-31T21:06:35.483Z,14.27
2022-12-31T21:09:05.727Z,14.82
2022-12-31T21:11:51.262Z,9.10
2022-12-31T21:14:19.807Z,17.73
2022-12-31T21:16:48.424Z,11.15
2022-12-31T21:19:17.932Z,11.70
2022-12-31T21:21:48.215Z,11.55
2022-12-31T21:24:23.246Z,16.20
2022-12-31T21:26:51.796Z,11.00
2022-12-31T21:29:19.767Z,10.13
2022-12-31T21:31:47.769Z,15.40
2022-12-31T21:34:17.138Z,5.97
2022-12-31T21:36:45.260Z,10.55
2022-12-31T21:39:13.357Z,16.80
2022-12-31T21:41:53.469Z,15.57
2022-12-31T21:44:22.873Z,7.18
2022-12-31T21:47:33.338Z,10.00
2022-12-31T21:49:43.974Z,7.57
2022-12-31T21:52:27.037Z,10.80
2022-12-31T21:55:12.989Z,11.73
2022-12-31T21:58:15.683Z,8.65
2022-12-31T22:00:47.479Z,11.85
2022-12-31T22:03:28.538Z,12.73
2022-12-31T22:05:59.939Z,7.00
2022-12-31T22:08:29.723Z,11.73
2022-12-31T22:10:58.149Z,11.32
2022-12-31T22:13:26.312Z,8.07
2022-12-31T22:16:01.755Z,10.35
2022-12-31T22:18:34.500Z,12.90
2022-12-31T22:21:05.748Z,11.97
2022-12-31T22:23:34.957Z,13.07
2022-12-31T22:26:04.649Z,12.95
2022-12-31T22:28:38.799Z,18.15
2022-12-31T22:31:07.980Z,14.15
2022-12-31T22:33:36.115Z,9.07
2022-12-31T22:36:08.129Z,7.15
2022-12-31T22:38:36.397Z,10.82
2022-12-31T22:41:06.750Z,10.80
2022-12-31T22:43:36.464Z,4.25
2022-12-31T22:46:09.743Z,8.85
2022-12-31T22:48:37.943Z,9.85
2022-12-31T22:51:08.653Z,8.07
2022-12-31T22:53:38.587Z,10.98
2022-12-31T22:56:07.176Z,8.25
2022-12-31T22:58:35.583Z,11.15
2022-12-31T23:01:05.642Z,10.18
2022-12-31T23:03:33.759Z,12.10
2022-12-31T23:06:02.007Z,9.32
2022-12-31T23:08:31.430Z,5.65
2022-12-31T23:11:01.366Z,5.90
2022-12-31T23:13:50.979Z,11.20
2022-12-31T23:16:37.513Z,9.02
2022-12-31T23:19:23.782Z,9.23
2022-12-31T23:22:09.862Z,11.60
2022-12-31T23:24:39.527Z,11.65
2022-12-31T23:27:08.201Z,8.65
2022-12-31T23:29:45.585Z,10.80
2022-12-31T23:32:15.096Z,7.80
2022-12-31T23:34:44.275Z,11.68
2022-12-31T23:37:12.311Z,11.00
2022-12-31T23:39:42.631Z,10.00
2022-12-31T23:42:10.772Z,7.32
2022-12-31T23:44:38.874Z,11.90
2022-12-31T23:47:07.163Z,10.98
2022-12-31T23:49:35.322Z,8.63
2022-12-31T23:52:03.453Z,11.82
2022-12-31T23:54:31.600Z,6.57
2022-12-31T23:57:01.005Z,10.25
2022-12-31T23:59:28.991Z,7.22
